Time;durP1;ratioP1;P1;durP2;ratioP2;P2;SDS_P1;SDS_P2;PMS_P1;PMS_P2;Temp;Humidity;BMP_temperature;BMP_pressure;BME280_temperature;BME280_humidity;BME280_pressure;Samples;Min_cycle;Max_cycle;Signal;HPM_P1;HPM_P2
2020/12/05 00:02:23;;;;;;;19.57;13.58;;;;;;;18.83;48.52;98920.30;2381740;74;51597;-74
2020/12/05 00:05:25;;;;;;;19.25;14.03;;;;;;;18.82;48.53;98921.33;2381885;74;51365;-74
2020/12/05 00:08:27;;;;;;;23.20;13.53;;;;;;;18.79;48.57;98909.73;2381872;74;50346;-76
2020/12/05 00:11:30;;;;;;;20.75;13.60;;;;;;;18.78;48.52;98905.43;2381844;74;49875;-75
2020/12/05 00:14:32;;;;;;;20.37;14.23;;;;;;;18.77;48.52;98908.33;2381974;74;50665;-75
2020/12/05 00:17:34;;;;;;;22.07;14.13;;;;;;;18.76;48.42;98911.53;2382047;74;52361;-75
2020/12/05 00:20:36;;;;;;;20.95;14.18;;;;;;;18.74;48.50;98920.81;2382054;74;52202;-75
2020/12/05 00:23:38;;;;;;;19.02;13.25;;;;;;;18.74;48.49;98922.95;2374311;73;50701;-75
2020/12/05 00:26:41;;;;;;;19.07;13.72;;;;;;;18.75;48.41;98931.31;2358662;75;50351;-77
2020/12/05 00:29:43;;;;;;;20.75;14.15;;;;;;;18.72;48.49;98935.76;2339974;76;50663;-76
2020/12/05 00:32:45;;;;;;;20.55;12.70;;;;;;;18.70;48.46;98938.68;2339908;76;51527;-75
2020/12/05 00:35:47;;;;;;;17.23;12.35;;;;;;;18.70;48.47;98938.68;2339781;75;51460;-76
2020/12/05 00:38:49;;;;;;;21.10;13.62;;;;;;;18.67;48.45;98927.58;2339594;76;51404;-76
2020/12/05 00:41:54;;;;;;;19.73;12.88;;;;;;;18.66;48.49;98905.86;2339551;76;50353;-75
2020/12/05 00:44:57;;;;;;;22.42;14.05;;;;;;;18.65;48.45;98897.02;2339733;75;51566;-75
2020/12/05 00:47:59;;;;;;;18.23;13.58;;;;;;;18.64;48.41;98898.04;2339591;76;51453;-74
2020/12/05 00:51:01;;;;;;;18.23;13.45;;;;;;;18.63;48.37;98892.40;2339599;76;50665;-75
2020/12/05 00:54:03;;;;;;;20.72;13.53;;;;;;;18.63;48.38;98898.28;2339333;76;50286;-74
2020/12/05 00:57:05;;;;;;;20.48;13.45;;;;;;;18.60;48.37;98908.09;2363528;74;50281;-75
2020/12/05 01:00:08;;;;;;;21.10;13.22;;;;;;;18.61;48.37;98899.02;2380549;74;50201;-76
2020/12/05 01:03:10;;;;;;;20.00;13.28;;;;;;;18.61;48.33;98904.37;2380469;74;51592;-75
2020/12/05 01:06:16;;;;;;;18.48;13.40;;;;;;;18.56;48.45;98901.03;2379684;74;50809;-74
2020/12/05 01:09:18;;;;;;;19.98;14.35;;;;;;;18.57;48.36;98904.00;2380567;74;50295;-75
2020/12/05 01:12:21;;;;;;;21.50;13.95;;;;;;;18.59;48.29;98915.84;2380380;74;50362;-74
2020/12/05 01:15:23;;;;;;;21.35;13.80;;;;;;;18.56;48.30;98907.73;2380427;74;51433;-74
2020/12/05 01:18:25;;;;;;;19.85;13.68;;;;;;;18.54;48.32;98904.98;2380137;74;51474;-74
2020/12/05 01:21:27;;;;;;;18.27;13.20;;;;;;;18.55;48.22;98911.47;2380102;74;50188;-79
2020/12/05 01:24:29;;;;;;;17.07;13.00;;;;;;;18.55;48.21;98913.30;2380370;74;50431;-75
2020/12/05 01:27:32;;;;;;;17.40;13.10;;;;;;;18.54;48.21;98919.19;2375460;74;50687;-74
2020/12/05 01:30:34;;;;;;;19.92;13.25;;;;;;;18.52;48.22;98917.25;2373620;75;51474;-75
2020/12/05 01:33:36;;;;;;;20.08;13.22;;;;;;;18.52;48.21;98923.12;2373386;75;51499;-74
2020/12/05 01:36:40;;;;;;;17.25;12.33;;;;;;;18.49;48.29;98928.41;2373659;75;51213;-74
2020/12/05 01:39:42;;;;;;;18.73;13.25;;;;;;;18.47;48.33;98928.66;2350614;75;50390;-75
2020/12/05 01:42:45;;;;;;;17.77;12.88;;;;;;;18.46;48.28;98909.59;2373379;75;50322;-73
2020/12/05 01:45:51;;;;;;;17.07;12.90;;;;;;;18.47;48.21;98897.86;2373455;75;50292;-73
2020/12/05 01:48:53;;;;;;;19.98;13.55;;;;;;;18.46;48.24;98900.75;2373466;75;51472;-75
2020/12/05 01:51:55;;;;;;;18.98;13.80;;;;;;;18.45;48.23;98899.94;2373251;75;50359;-74
2020/12/05 01:54:58;;;;;;;17.10;13.08;;;;;;;18.44;48.22;98913.02;2373219;74;51396;-74
2020/12/05 01:58:01;;;;;;;18.50;13.22;;;;;;;18.43;48.24;98905.22;2342898;75;50610;-74
2020/12/05 02:01:03;;;;;;;18.00;12.50;;;;;;;18.41;48.18;98918.82;2339338;76;51641;-74
2020/12/05 02:04:05;;;;;;;18.87;13.55;;;;;;;18.42;48.22;98921.81;2339259;75;51412;-75
2020/12/05 02:07:13;;;;;;;19.15;12.95;;;;;;;18.41;48.24;98903.28;2339602;76;50320;-77
2020/12/05 02:10:18;;;;;;;17.90;12.85;;;;;;;18.40;48.18;98909.16;2338955;75;51511;-73
2020/12/05 02:13:28;;;;;;;17.30;13.10;;;;;;;18.40;48.16;98905.14;2339551;75;50740;-74
2020/12/05 02:16:31;;;;;;;19.32;13.55;;;;;;;18.38;48.16;98904.55;2340066;76;51509;-74
2020/12/05 02:19:42;;;;;;;19.23;13.10;;;;;;;18.37;48.18;98914.97;2340276;76;50378;-74
2020/12/05 02:22:46;;;;;;;18.23;13.58;;;;;;;18.38;48.13;98914.45;2341697;75;50725;-74
2020/12/05 02:25:50;;;;;;;17.87;13.00;;;;;;;18.37;48.11;98911.45;2352224;74;50440;-75
2020/12/05 02:28:52;;;;;;;19.12;12.80;;;;;;;18.35;48.13;98914.38;2352352;75;50315;-75
2020/12/05 02:31:54;;;;;;;16.97;12.40;;;;;;;18.33;48.12;98915.11;2352226;74;50361;-73
2020/12/05 02:34:56;;;;;;;20.90;13.50;;;;;;;18.32;48.15;98914.83;2320132;75;50680;-73
2020/12/05 02:38:01;;;;;;;18.27;13.18;;;;;;;18.33;48.07;98924.48;2352354;75;51572;-74
2020/12/05 02:41:03;;;;;;;19.07;13.90;;;;;;;18.34;47.98;98927.97;2351767;75;50045;-74
2020/12/05 02:44:05;;;;;;;20.35;13.08;;;;;;;18.32;48.09;98924.20;2351910;75;50655;-74
2020/12/05 02:47:08;;;;;;;18.75;13.08;;;;;;;18.33;48.00;98918.31;2352211;75;50331;-74
2020/12/05 02:50:10;;;;;;;18.30;13.25;;;;;;;18.30;47.98;98904.85;2352043;75;50696;-74
2020/12/05 02:53:12;;;;;;;18.57;13.13;;;;;;;18.30;48.00;98910.20;2352008;74;51941;-74
2020/12/05 02:56:18;;;;;;;18.65;12.60;;;;;;;18.28;48.00;98909.08;2351792;75;51501;-76
2020/12/05 02:59:19;;;;;;;;;;;;;;;18.28;48.02;98909.61;2354650;75;51574;-74
2020/12/05 03:02:21;;;;;;;19.55;12.98;;;;;;;18.26;48.05;98923.73;2351592;74;51528;-74
2020/12/05 03:05:24;;;;;;;17.00;12.63;;;;;;;18.24;48.06;98926.65;2351499;75;51475;-74
2020/12/05 03:08:26;;;;;;;16.77;12.90;;;;;;;18.25;48.07;98930.14;2351607;75;50312;-74
2020/12/05 03:11:28;;;;;;;18.85;12.45;;;;;;;18.24;48.07;98927.98;2351440;75;50351;-74
2020/12/05 03:14:30;;;;;;;17.00;12.90;;;;;;;18.23;48.07;98924.99;2351374;75;50662;-74
2020/12/05 03:17:33;;;;;;;16.52;12.75;;;;;;;18.21;48.04;98921.74;2351421;75;50223;-74
2020/12/05 03:20:35;;;;;;;16.80;12.73;;;;;;;18.21;48.00;98916.39;2351388;74;51508;-73
2020/12/05 03:23:37;;;;;;;18.55;13.50;;;;;;;18.20;48.03;98911.25;2347990;75;51513;-77
2020/12/05 03:26:39;;;;;;;16.90;13.05;;;;;;;18.22;47.95;98923.89;2339599;76;50336;-76
2020/12/05 03:29:41;;;;;;;16.85;12.28;;;;;;;18.19;48.00;98916.31;2339650;76;50686;-75
2020/12/05 03:32:44;;;;;;;18.48;13.30;;;;;;;18.18;48.00;98911.98;2339546;76;51467;-74
2020/12/05 03:35:46;;;;;;;16.15;11.57;;;;;;;18.17;48.02;98907.16;2339638;76;50424;-75
2020/12/05 03:38:48;;;;;;;17.75;12.28;;;;;;;18.16;47.98;98900.18;2339599;76;50295;-76
2020/12/05 03:41:51;;;;;;;16.85;12.35;;;;;;;18.17;47.97;98896.97;2321560;74;51593;-75
2020/12/05 03:44:53;;;;;;;16.25;12.37;;;;;;;18.15;47.99;98891.02;2315829;76;51444;-75
2020/12/05 03:47:55;;;;;;;15.72;11.38;;;;;;;18.14;47.95;98898.77;2372179;74;50313;-75
2020/12/05 03:50:57;;;;;;;17.17;11.78;;;;;;;18.15;47.90;98906.55;2380528;74;50195;-74
2020/12/05 03:53:59;;;;;;;17.50;12.25;;;;;;;18.11;48.00;98913.41;2380376;74;50617;-74
2020/12/05 03:57:02;;;;;;;16.27;12.75;;;;;;;18.12;47.93;98916.90;2380380;74;52617;-74
2020/12/05 04:00:04;;;;;;;18.48;12.98;;;;;;;18.11;47.98;98897.84;2380203;74;51451;-76
2020/12/05 04:03:07;;;;;;;15.98;12.07;;;;;;;18.11;47.96;98869.74;2380105;74;50601;-75
2020/12/05 04:06:12;;;;;;;16.15;11.90;;;;;;;18.09;47.94;98837.05;2380210;74;51613;-74
2020/12/05 04:09:13;;;;;;;15.08;12.25;;;;;;;18.06;47.96;98804.34;2380424;74;22373;-74
2020/12/05 04:12:15;;;;;;;15.88;12.28;;;;;;;18.05;47.95;98796.52;2380196;74;50658;-74
2020/12/05 04:15:17;;;;;;;17.82;11.70;;;;;;;18.03;47.96;98778.03;2380296;74;51468;-74
2020/12/05 04:18:19;;;;;;;16.90;12.33;;;;;;;18.02;47.94;98779.05;2339271;74;50607;-74
2020/12/05 04:21:21;;;;;;;16.40;12.47;;;;;;;18.02;47.95;98749.61;2339310;76;51466;-75
2020/12/05 04:24:24;;;;;;;15.48;12.53;;;;;;;18.02;47.90;98740.78;2343469;75;52167;-74
2020/12/05 04:27:27;;;;;;;15.98;12.03;;;;;;;18.01;47.88;98733.28;2351652;75;50702;-75
2020/12/05 04:30:29;;;;;;;15.65;11.73;;;;;;;18.01;47.84;98752.01;2351667;74;51623;-74
2020/12/05 04:33:31;;;;;;;15.72;11.73;;;;;;;18.00;47.84;98777.64;2351505;75;51528;-74
2020/12/05 04:36:33;;;;;;;16.00;12.53;;;;;;;18.01;47.81;98785.46;2351586;75;50356;-75
2020/12/05 04:39:36;;;;;;;16.77;12.07;;;;;;;18.00;47.80;98785.14;2351396;75;50358;-74
2020/12/05 04:42:46;;;;;;;17.52;12.07;;;;;;;17.99;47.77;98766.13;2351338;75;50435;-73
2020/12/05 04:45:48;;;;;;;15.88;11.73;;;;;;;17.98;47.83;98765.84;2350395;75;50760;-74
2020/12/05 04:48:50;;;;;;;15.65;11.97;;;;;;;17.97;47.79;98772.22;2351439;75;51467;-74
2020/12/05 04:51:54;;;;;;;16.37;12.20;;;;;;;17.97;47.74;98784.27;2351267;75;50327;-73
2020/12/05 04:54:56;;;;;;;15.13;11.93;;;;;;;17.98;47.74;98814.02;2351322;75;50407;-74
2020/12/05 04:57:59;;;;;;;19.17;12.00;;;;;;;17.98;47.71;98837.25;2352209;74;51429;-73
2020/12/05 05:01:01;;;;;;;13.65;10.93;;;;;;;17.95;47.81;98855.91;2352256;75;50365;-74
2020/12/05 05:04:05;;;;;;;16.65;11.75;;;;;;;17.93;47.81;98845.13;2352118;75;50321;-74
2020/12/05 05:07:07;;;;;;;16.67;11.55;;;;;;;17.94;47.78;98863.66;2352235;75;50739;-74
2020/12/05 05:10:15;;;;;;;15.28;11.25;;;;;;;17.93;47.79;98886.11;2352417;75;51490;-73
2020/12/05 05:13:20;;;;;;;;;;;;;;;17.94;47.74;98869.01;2323167;75;22372;-74
2020/12/05 05:16:18;;;;;;;15.98;10.90;;;;;;;17.94;47.70;98839.57;2350716;75;22417;-77
2020/12/05 05:19:21;;;;;;;14.50;11.12;;;;;;;17.93;47.66;98825.91;2352368;75;50242;-74
2020/12/05 05:22:23;;;;;;;14.18;11.65;;;;;;;17.95;47.60;98847.89;2352250;75;51539;-73
2020/12/05 05:25:25;;;;;;;14.53;11.48;;;;;;;17.97;47.53;98870.42;2346917;75;50667;-74
2020/12/05 05:28:30;;;;;;;16.57;10.85;;;;;;;17.99;47.52;98867.01;2340590;76;51462;-74
2020/12/05 05:31:46;;;;;;;14.68;10.88;;;;;;;17.99;47.53;98848.28;2336801;76;50654;-73
2020/12/05 05:34:43;;;;;;;14.73;10.70;;;;;;;18.00;47.53;98874.80;2335721;76;22292;-74
2020/12/05 05:37:45;;;;;;;13.95;10.48;;;;;;;18.03;47.50;98891.77;2337040;76;50567;-74
2020/12/05 05:40:47;;;;;;;13.53;10.45;;;;;;;18.04;47.50;98901.42;2337114;76;51473;-74
2020/12/05 05:43:55;;;;;;;16.97;11.22;;;;;;;18.06;47.51;98926.64;2337013;76;50346;-74
2020/12/05 05:46:57;;;;;;;14.23;10.53;;;;;;;18.06;47.56;98918.61;2322835;76;51587;-74
2020/12/05 05:50:00;;;;;;;15.23;10.72;;;;;;;18.10;47.58;98910.94;2336983;76;50273;-74
2020/12/05 05:53:06;;;;;;;13.03;10.30;;;;;;;18.10;47.60;98900.23;2304645;76;50680;-75
2020/12/05 05:56:08;;;;;;;15.65;10.80;;;;;;;18.10;47.92;98906.92;2336738;76;50342;-75
2020/12/05 05:59:10;;;;;;;13.03;9.88;;;;;;;18.14;48.46;98900.10;2323180;74;50689;-75
2020/12/05 06:02:14;;;;;;;16.17;10.55;;;;;;;18.16;48.54;98900.67;2381287;74;52594;-75
2020/12/05 06:05:16;;;;;;;15.08;9.63;;;;;;;18.17;48.92;98922.41;2381107;74;50401;-74
2020/12/05 06:08:26;;;;;;;15.83;10.00;;;;;;;18.19;48.83;98919.80;2381520;74;50690;-74
2020/12/05 06:11:28;;;;;;;16.37;9.83;;;;;;;18.21;48.77;98918.22;2345134;74;51617;-74
2020/12/05 06:14:30;;;;;;;14.78;9.83;;;;;;;18.22;48.74;98943.45;2340724;76;51548;-74
2020/12/05 06:17:32;;;;;;;17.80;9.83;;;;;;;18.33;48.61;98968.66;2340719;76;51397;-74
2020/12/05 06:20:36;;;;;;;12.95;9.03;;;;;;;18.36;48.66;98991.50;2340710;76;51523;-74
2020/12/05 06:23:50;;;;;;;16.80;9.80;;;;;;;18.39;48.80;99001.76;2341994;75;50310;-76
2020/12/05 06:26:52;;;;;;;13.20;9.25;;;;;;;18.41;48.56;99009.87;2371304;74;50694;-74
2020/12/05 06:29:55;;;;;;;13.28;9.08;;;;;;;18.50;48.33;99012.56;2375161;74;50362;-74
2020/12/05 06:32:57;;;;;;;14.40;9.15;;;;;;;18.57;48.19;99008.98;2375881;74;50697;-74
2020/12/05 06:35:59;;;;;;;12.65;8.95;;;;;;;18.64;48.04;99009.21;2374938;74;51432;-74
2020/12/05 06:39:18;;;;;;;14.03;9.68;;;;;;;18.65;47.99;99005.52;2374300;74;50661;-74
2020/12/05 06:42:20;;;;;;;14.73;8.50;;;;;;;18.66;47.97;98990.25;2374730;74;50681;-74
2020/12/05 06:45:31;;;;;;;13.28;8.58;;;;;;;18.71;47.89;98995.75;2374747;74;51465;-74
2020/12/05 06:48:34;;;;;;;12.07;8.63;;;;;;;18.70;47.94;98989.58;2377648;74;51461;-75
2020/12/05 06:51:36;;;;;;;13.70;9.18;;;;;;;18.72;47.91;99005.41;2365353;74;52258;-74
2020/12/05 06:54:54;;;;;;;15.53;8.80;;;;;;;18.74;47.87;99001.19;2364942;74;51428;-76
2020/12/05 06:58:06;;;;;;;14.53;9.00;;;;;;;18.78;47.81;98993.02;2376443;74;50593;-76
2020/12/05 07:01:08;;;;;;;14.55;9.00;;;;;;;18.79;47.78;98989.30;2386604;74;51578;-75
2020/12/05 07:04:23;;;;;;;15.03;8.35;;;;;;;18.79;47.78;98998.16;2379009;74;51439;-75
2020/12/05 07:07:30;;;;;;;12.33;7.45;;;;;;;18.80;47.80;98997.63;2379116;74;50364;-74
2020/12/05 07:10:52;;;;;;;13.98;8.23;;;;;;;18.82;47.75;99015.65;2358281;75;49792;-75
2020/12/05 07:13:53;;;;;;;15.60;8.13;;;;;;;18.85;47.71;99017.34;2359703;75;23010;-74
2020/12/05 07:16:55;;;;;;;13.15;7.87;;;;;;;18.85;47.73;99012.52;2360088;75;51478;-75
2020/12/05 07:19:58;;;;;;;15.32;8.40;;;;;;;18.88;47.67;99008.88;2360075;75;51464;-75
2020/12/05 07:23:00;;;;;;;12.03;8.28;;;;;;;18.88;47.73;99009.38;2360104;75;51354;-75
2020/12/05 07:26:03;;;;;;;13.93;7.95;;;;;;;18.87;47.76;99011.25;2353741;75;51506;-75
2020/12/05 07:29:05;;;;;;;14.10;8.20;;;;;;;18.88;47.80;99026.30;2339735;74;50665;-77
2020/12/05 07:32:07;;;;;;;14.78;7.92;;;;;;;18.92;47.74;99008.70;2345821;74;51489;-76
2020/12/05 07:35:15;;;;;;;16.02;7.62;;;;;;;18.95;47.71;99011.99;2339587;76;51639;-76
2020/12/05 07:38:17;;;;;;;12.20;7.90;;;;;;;18.95;47.71;99003.42;2339800;74;49710;-76
2020/12/05 07:41:20;;;;;;;15.28;7.60;;;;;;;18.98;47.63;98998.12;2340033;75;50236;-76
2020/12/05 07:44:22;;;;;;;14.83;7.58;;;;;;;18.99;47.65;99011.84;2340185;75;51568;-74
2020/12/05 07:47:24;;;;;;;11.28;7.42;;;;;;;19.00;47.67;99026.34;2340293;76;51555;-74
2020/12/05 07:50:34;;;;;;;14.00;7.67;;;;;;;19.01;47.67;99032.52;2340172;76;51546;-74
2020/12/05 07:53:36;;;;;;;11.08;7.08;;;;;;;19.03;47.69;99039.30;2380251;74;50699;-74
2020/12/05 07:56:39;;;;;;;13.85;7.40;;;;;;;19.05;47.71;99049.80;2364155;74;51581;-75
2020/12/05 07:59:41;;;;;;;11.30;6.78;;;;;;;19.06;47.70;99060.81;2340001;76;50555;-75
2020/12/05 08:03:02;;;;;;;16.17;7.95;;;;;;;19.07;47.69;99081.23;2367761;75;51490;-74
2020/12/05 08:06:16;;;;;;;13.62;7.20;;;;;;;19.08;47.69;99090.38;2371749;74;49657;-77
2020/12/05 08:09:21;;;;;;;11.70;7.30;;;;;;;19.11;47.68;99119.94;2345280;74;51510;-76
2020/12/05 08:12:49;;;;;;;11.28;6.62;;;;;;;19.13;47.70;99119.20;2339873;75;50713;-74
2020/12/05 08:16:07;;;;;;;16.75;7.65;;;;;;;19.14;47.66;99124.35;2342618;74;22808;-75
2020/12/05 08:19:10;;;;;;;13.03;7.40;;;;;;;19.16;47.65;99129.47;2380516;74;51531;-76
2020/12/05 08:22:12;;;;;;;17.05;7.40;;;;;;;19.17;47.68;99138.36;2372884;75;50326;-75
2020/12/05 08:25:14;;;;;;;12.98;7.72;;;;;;;19.21;47.72;99149.73;2379037;74;50023;-75
2020/12/05 08:28:19;;;;;;;12.82;7.70;;;;;;;19.23;47.74;99138.80;2344309;74;50674;-76
2020/12/05 08:31:21;;;;;;;15.43;7.42;;;;;;;19.25;48.64;99136.19;2339509;75;51466;-79
2020/12/05 08:34:30;;;;;;;11.75;7.75;;;;;;;19.28;48.48;99143.77;2339588;75;51476;-77
2020/12/05 08:37:33;;;;;;;15.75;6.80;;;;;;;19.30;48.75;99150.27;2339705;76;51558;-76
2020/12/05 08:40:35;;;;;;;18.02;8.40;;;;;;;19.34;48.85;99166.19;2339574;76;50649;-76
2020/12/05 08:43:37;;;;;;;15.98;7.00;;;;;;;19.35;48.88;99170.00;2358392;75;51530;-76
2020/12/05 08:46:39;;;;;;;18.42;7.42;;;;;;;19.38;48.93;99173.28;2370978;75;51533;-75
2020/12/05 08:49:44;;;;;;;12.33;6.37;;;;;;;19.39;49.04;99196.38;2364674;74;51527;-76
2020/12/05 08:52:46;;;;;;;14.95;7.45;;;;;;;19.39;49.10;99222.66;2341933;75;50210;-75
2020/12/05 08:55:48;;;;;;;17.70;7.65;;;;;;;19.43;49.19;99194.89;2340907;76;50718;-75
2020/12/05 08:58:51;;;;;;;15.88;7.35;;;;;;;19.44;49.26;99177.74;2346929;74;51460;-76
2020/12/05 09:01:53;;;;;;;19.77;7.28;;;;;;;19.43;49.27;99162.17;2363485;74;51460;-76
2020/12/05 09:04:57;;;;;;;12.82;6.80;;;;;;;19.46;49.36;99153.67;2368203;74;50670;-75
2020/12/05 09:08:00;;;;;;;15.53;6.60;;;;;;;19.47;49.39;99147.28;2316597;74;50710;-75
2020/12/05 09:11:02;;;;;;;14.98;7.42;;;;;;;19.50;49.43;99169.63;2350981;73;51481;-74
2020/12/05 09:14:05;;;;;;;16.35;6.78;;;;;;;19.51;49.42;99205.31;2305627;76;52102;-75
2020/12/05 09:17:26;;;;;;;15.95;7.33;;;;;;;19.54;49.46;99253.16;2379221;74;50354;-76
2020/12/05 09:20:28;;;;;;;15.08;7.03;;;;;;;19.57;49.45;99290.27;2342812;74;51503;-76
2020/12/05 09:23:30;;;;;;;15.48;7.30;;;;;;;19.58;49.51;99296.77;2340222;75;51534;-76
2020/12/05 09:26:33;;;;;;;12.73;7.28;;;;;;;19.59;49.57;99292.21;2341223;75;51549;-76
2020/12/05 09:29:35;;;;;;;15.15;7.20;;;;;;;19.62;49.51;99289.08;2354778;74;51433;-75
2020/12/05 09:32:39;;;;;;;14.53;7.28;;;;;;;19.63;49.49;99273.30;2353964;74;51493;-75
2020/12/05 09:35:42;;;;;;;11.80;7.28;;;;;;;19.65;49.48;99272.55;2351106;74;50620;-77
2020/12/05 09:38:44;;;;;;;14.33;7.40;;;;;;;19.68;49.46;99267.27;2351586;75;50373;-75
2020/12/05 09:41:46;;;;;;;17.48;7.25;;;;;;;19.74;49.27;99263.17;2352121;74;50637;-75
2020/12/05 09:44:48;;;;;;;20.85;7.67;;;;;;;19.71;49.31;99262.28;2351523;75;50352;-76
2020/12/05 09:47:51;;;;;;;17.92;7.95;;;;;;;19.71;49.32;99267.66;2377952;74;50243;-76
2020/12/05 09:50:53;;;;;;;15.08;8.20;;;;;;;19.83;49.18;99282.99;2327047;76;50256;-76
2020/12/05 09:53:55;;;;;;;15.80;7.78;;;;;;;19.86;49.19;99273.14;2351344;75;50261;-76
2020/12/05 09:56:57;;;;;;;13.93;8.15;;;;;;;19.92;49.01;99285.16;2351909;74;50689;-76
2020/12/05 09:59:59;;;;;;;14.15;7.87;;;;;;;19.95;48.87;99286.58;2351526;75;51584;-77
2020/12/05 10:03:02;;;;;;;21.77;8.40;;;;;;;20.03;48.67;99290.29;2351492;75;51463;-76
2020/12/05 10:06:04;;;;;;;19.62;9.25;;;;;;;20.01;48.73;99299.08;2351724;75;51476;-77
2020/12/05 10:09:06;;;;;;;21.42;8.18;;;;;;;20.02;48.70;99288.66;2351727;75;51532;-77
2020/12/05 10:12:08;;;;;;;19.30;8.10;;;;;;;20.05;48.64;99296.26;2374574;74;52229;-77
2020/12/05 10:15:14;;;;;;;18.85;8.18;;;;;;;20.07;48.66;99317.00;2362300;74;50371;-76
2020/12/05 10:18:16;;;;;;;22.67;8.50;;;;;;;20.11;48.73;99349.05;2379193;74;50216;-75
2020/12/05 10:21:18;;;;;;;15.68;7.50;;;;;;;20.10;48.69;99352.80;2353612;74;50280;-75
2020/12/05 10:24:20;;;;;;;19.67;8.10;;;;;;;20.13;48.56;99357.71;2351794;74;49929;-75
2020/12/05 10:27:23;;;;;;;14.20;7.53;;;;;;;20.16;48.47;99361.28;2366679;74;50323;-76
2020/12/05 10:30:25;;;;;;;14.13;7.78;;;;;;;20.16;48.45;99373.90;2314302;76;50669;-75
2020/12/05 10:33:27;;;;;;;16.30;7.95;;;;;;;20.18;48.34;99383.90;2295946;76;52250;-75
2020/12/05 10:36:29;;;;;;;15.25;8.08;;;;;;;20.21;48.24;99386.95;2291333;77;51534;-75
2020/12/05 10:39:31;;;;;;;14.58;7.67;;;;;;;20.21;48.19;99389.63;2298660;76;51463;-76
2020/12/05 10:42:34;;;;;;;14.65;7.55;;;;;;;20.23;48.13;99400.98;2297043;77;50257;-76
2020/12/05 10:45:36;;;;;;;15.83;7.97;;;;;;;20.23;48.07;99395.61;2252809;77;50319;-76
2020/12/05 10:48:38;;;;;;;14.23;7.95;;;;;;;20.26;48.00;99398.36;2260513;77;50606;-77
2020/12/05 10:51:40;;;;;;;14.73;7.30;;;;;;;20.30;47.95;99390.70;2287599;77;50564;-76
2020/12/05 10:54:42;;;;;;;16.48;8.08;;;;;;;20.28;47.92;99382.85;2296404;76;50601;-74
2020/12/05 10:57:44;;;;;;;14.53;7.42;;;;;;;20.29;47.91;99362.99;2260765;77;51521;-75
2020/12/05 11:00:48;;;;;;;14.73;7.42;;;;;;;20.32;47.98;99357.69;2256978;77;50396;-74
2020/12/05 11:03:50;;;;;;;15.10;7.08;;;;;;;20.35;48.19;99345.17;2298094;76;50209;-75
2020/12/05 11:06:55;;;;;;;16.52;7.70;;;;;;;20.39;48.15;99361.13;2251016;77;50061;-76
2020/12/05 11:09:57;;;;;;;25.48;7.92;;;;;;;20.38;48.33;99366.21;2270640;77;50621;-75
2020/12/05 11:13:00;;;;;;;23.92;8.10;;;;;;;20.40;48.52;99365.47;2299022;77;51530;-76
2020/12/05 11:16:02;;;;;;;17.02;7.30;;;;;;;20.39;48.53;99397.39;2280829;76;51443;-76
2020/12/05 11:19:04;;;;;;;18.77;7.17;;;;;;;20.40;48.56;99387.77;2296661;77;51446;-76
2020/12/05 11:22:06;;;;;;;18.48;7.17;;;;;;;20.41;48.61;99380.52;2322129;76;50324;-75
2020/12/05 11:25:08;;;;;;;19.70;7.80;;;;;;;20.46;48.35;99408.88;2335155;76;50322;-75
2020/12/05 11:28:11;;;;;;;29.80;7.78;;;;;;;20.56;48.09;99441.45;2291794;77;50772;-75
2020/12/05 11:31:13;;;;;;;20.27;8.23;;;;;;;20.43;48.30;99436.20;2339458;75;50385;-75
2020/12/05 11:34:15;;;;;;;16.52;7.10;;;;;;;20.37;48.31;99427.69;2373127;74;50671;-75
2020/12/05 11:37:17;;;;;;;17.25;7.50;;;;;;;20.37;48.27;99450.52;2364581;75;50752;-74
2020/12/05 11:40:19;;;;;;;17.75;7.10;;;;;;;20.35;48.17;99457.48;2355984;75;51518;-75
2020/12/05 11:43:21;;;;;;;16.93;7.85;;;;;;;20.36;48.16;99459.63;2343017;75;51483;-77
2020/12/05 11:46:24;;;;;;;11.88;6.90;;;;;;;20.36;48.05;99456.95;2339410;76;51441;-77
2020/12/05 11:49:26;;;;;;;14.23;6.22;;;;;;;20.40;47.91;99463.53;2339591;76;50353;-78
2020/12/05 11:52:28;;;;;;;13.43;6.30;;;;;;;20.40;47.96;99471.59;2339502;76;50096;-78
2020/12/05 11:55:30;;;;;;;13.53;6.67;;;;;;;20.37;48.00;99457.23;2339392;76;50718;-77
2020/12/05 11:58:32;;;;;;;17.50;7.15;;;;;;;20.38;47.93;99452.99;2339344;75;50111;-78
2020/12/05 12:01:35;;;;;;;14.70;7.58;;;;;;;20.38;47.95;99451.65;2340194;74;50724;-77
2020/12/05 12:04:41;;;;;;;17.27;6.92;;;;;;;20.38;47.91;99442.78;2339386;76;51463;-78
2020/12/05 12:07:43;;;;;;;14.50;7.12;;;;;;;20.38;47.88;99436.06;2339463;76;50737;-78
2020/12/05 12:10:45;;;;;;;13.28;6.80;;;;;;;20.38;47.85;99420.75;2340932;74;52100;-79
2020/12/05 12:13:48;;;;;;;15.30;7.10;;;;;;;20.42;47.77;99439.92;2339197;76;51419;-78
2020/12/05 12:16:50;;;;;;;13.25;6.67;;;;;;;20.39;47.84;99455.97;2349066;74;51637;-77
2020/12/05 12:19:52;;;;;;;14.68;6.62;;;;;;;20.44;47.74;99476.80;2380424;74;51499;-77
2020/12/05 12:22:54;;;;;;;15.43;6.97;;;;;;;20.51;47.60;99495.55;2355181;74;50321;-77
2020/12/05 12:25:58;;;;;;;13.93;6.75;;;;;;;20.47;47.67;99502.39;2339394;76;50355;-76
2020/12/05 12:29:00;;;;;;;12.15;6.47;;;;;;;20.48;47.58;99510.25;2360945;74;51498;-79
2020/12/05 12:32:02;;;;;;;14.03;6.87;;;;;;;20.49;47.61;99527.19;2351812;75;50414;-78
2020/12/05 12:35:04;;;;;;;13.98;7.40;;;;;;;20.47;47.62;99540.02;2351953;75;50351;-78
2020/12/05 12:38:06;;;;;;;11.60;6.42;;;;;;;20.47;47.58;99554.27;2352008;74;50282;-78
2020/12/05 12:41:09;;;;;;;10.98;6.70;;;;;;;20.51;47.50;99542.05;2351952;75;50686;-78
2020/12/05 12:44:11;;;;;;;11.68;5.75;;;;;;;20.51;47.46;99542.05;2351734;75;51533;-78
2020/12/05 12:47:39;;;;;;;15.32;7.42;;;;;;;20.54;47.33;99536.25;2351498;74;51497;-77
2020/12/05 12:50:29;;;;;;;14.18;6.22;;;;;;;20.52;47.35;99538.30;2349567;75;22383;-78
2020/12/05 12:53:31;;;;;;;12.18;6.03;;;;;;;20.50;47.40;99551.66;2349573;75;51484;-78
2020/12/05 12:56:36;;;;;;;11.65;6.17;;;;;;;20.54;47.33;99560.93;2349871;74;51487;-75
2020/12/05 12:59:37;;;;;;;14.87;6.55;;;;;;;20.53;47.33;99574.08;2301257;76;22356;-76
2020/12/05 13:02:39;;;;;;;16.85;6.47;;;;;;;20.56;47.22;99577.16;2392238;74;51491;-77
2020/12/05 13:05:41;;;;;;;21.25;7.05;;;;;;;20.56;47.24;99579.03;2392467;74;51241;-77
2020/12/05 13:08:44;;;;;;;15.93;6.50;;;;;;;20.56;47.24;99571.79;2357267;74;51474;-77
2020/12/05 13:11:46;;;;;;;14.73;6.80;;;;;;;20.55;47.24;99576.03;2351317;75;51540;-77
2020/12/05 13:14:48;;;;;;;11.15;6.08;;;;;;;20.58;47.17;99572.39;2351246;75;51465;-76
2020/12/05 13:17:50;;;;;;;16.87;6.70;;;;;;;20.61;47.08;99583.22;2365525;74;51533;-76
2020/12/05 13:20:52;;;;;;;11.08;6.05;;;;;;;20.63;47.00;99599.95;2392496;74;50340;-77
2020/12/05 13:23:55;;;;;;;11.93;5.83;;;;;;;20.61;47.03;99601.51;2383004;74;50293;-76
2020/12/05 13:26:57;;;;;;;14.05;6.03;;;;;;;20.63;46.99;99606.15;2381704;74;50709;-76
2020/12/05 13:29:59;;;;;;;11.60;5.92;;;;;;;20.64;46.99;99614.50;2383667;73;51474;-77
2020/12/05 13:33:01;;;;;;;11.63;5.95;;;;;;;20.62;47.02;99634.05;2385414;74;51455;-77
2020/12/05 13:36:05;;;;;;;10.05;6.08;;;;;;;20.65;46.95;99623.38;2373926;74;52231;-78
2020/12/05 13:39:07;;;;;;;10.45;6.10;;;;;;;20.68;46.91;99631.02;2360803;74;51507;-78
2020/12/05 13:42:09;;;;;;;11.03;5.45;;;;;;;20.68;46.91;99632.38;2381713;74;51530;-78
2020/12/05 13:45:11;;;;;;;15.23;5.92;;;;;;;20.69;46.91;99653.34;2311581;76;50287;-78
2020/12/05 13:48:14;;;;;;;14.87;6.50;;;;;;;20.70;46.88;99659.83;2340318;76;50334;-77
2020/12/05 13:51:16;;;;;;;11.85;6.55;;;;;;;20.75;46.85;99665.89;2323347;76;50594;-78
2020/12/05 13:54:18;;;;;;;12.35;7.08;;;;;;;20.73;46.89;99658.06;2300055;77;51530;-77
2020/12/05 13:57:20;;;;;;;11.85;7.22;;;;;;;20.74;46.91;99666.95;2300167;77;50664;-78
2020/12/05 14:00:22;;;;;;;12.60;7.50;;;;;;;20.73;46.98;99678.72;2264764;77;50661;-78
2020/12/05 14:03:25;;;;;;;17.65;7.60;;;;;;;20.72;47.04;99683.81;2334343;76;50349;-78
2020/12/05 14:06:27;;;;;;;12.30;7.50;;;;;;;20.74;47.04;99699.20;2300091;76;51480;-78
2020/12/05 14:09:31;;;;;;;15.10;7.72;;;;;;;20.71;47.19;99707.72;2317056;76;51381;-78